D/T METAR WX W/DIR W/SPE G/SPE TEMP DEWP
7/12/19 14:20 EGAE 071420Z 22016KT 9999 FEW009 BKN015 12/10 Q0999 SW (220°) 18.4mph 12°C 10°C
7/12/19 13:50 EGAE 071350Z 23018G28KT 9999 VCSH SCT007 BKN013 12/10 Q1000 VCSH SW (230°) 20.7mph 32.2mph 12°C 10°C
7/12/19 13:20 EGAE 071320Z 23016KT 9999 VCSH SCT007 BKN011 12/11 Q1000 VCSH SW (230°) 18.4mph 12°C 11°C
7/12/19 12:50 EGAE 071250Z 23019KT 9999 VCSH SCT007 BKN011 12/11 Q1001 VCSH SW (230°) 21.9mph 12°C 11°C
7/12/19 12:20 EGAE 071220Z 23016KT 9999 SCT008 BKN011 12/10 Q1001 SW (230°) 18.4mph 12°C 10°C
7/12/19 11:50 EGAE 071150Z 23015KT 9999 FEW008 BKN012 11/10 Q1002 SW (230°) 17.3mph 11°C 10°C
7/12/19 11:20 EGAE 071120Z 22013KT 9999 -RADZ FEW007 BKN013 11/09 Q1002 -RA -DZ SW (220°) 15.0mph 11°C 9°C
7/12/19 10:50 EGAE 071050Z 22018KT 180V250 9999 7000NW -RADZ FEW005 SCT011 BKN016 11/09 Q1003 -RA DZ SW (220°) 20.7mph 11°C 9°C
7/12/19 10:20 EGAE 071020Z 23014KT 9999 FEW005 SCT011 BKN030 10/09 Q1003 SW (230°) 16.1mph 10°C 9°C
7/12/19 09:50 EGAE 070950Z 22014KT 9999 FEW007 BKN013 10/09 Q1004 SW (220°) 16.1mph 10°C 9°C
7/12/19 09:20 EGAE 070920Z 23013KT 9999 FEW007 SCT013 BKN027 10/08 Q1004 SW (230°) 15.0mph 10°C 8°C
7/12/19 08:50 EGAE 070850Z 23014KT 9999 FEW008 SCT013 BKN030 09/08 Q1005 SW (230°) 16.1mph 9°C 8°C
7/12/19 08:20 EGAE 070820Z 23014KT 9999 FEW008 SCT028 BKN047 09/08 Q1005 SW (230°) 16.1mph 9°C 8°C
7/12/19 07:50 EGAE 070750Z 23014KT 9999 FEW008 SCT023 BKN028 09/08 Q1005 SW (230°) 16.1mph 9°C 8°C
6/12/19 20:50 EGAE 062050Z 28013KT 9999 FEW011 SCT017 09/08 Q1004 W (280°) 15.0mph 9°C 8°C
6/12/19 20:20 EGAE 062020Z 26013KT 9999 VCSH FEW011 SCT019 09/08 Q1004 VCSH W (260°) 15.0mph 9°C 8°C
6/12/19 19:50 EGAE 061950Z 27012KT 9999 FEW015 SCT032 09/08 Q1003 W (270°) 13.8mph 9°C 8°C
6/12/19 19:20 EGAE 061920Z 26012KT 9999 VCSH FEW008 SCT013 09/08 Q1003 VCSH W (260°) 13.8mph 9°C 8°C
6/12/19 18:50 EGAE 061850Z 28014KT 9999 FEW009 SCT021 09/08 Q1003 W (280°) 16.1mph 9°C 8°C
6/12/19 18:20 EGAE 061820Z 27017KT 8000 SHRA FEW008 BKN015 09/08 Q1003 SHRA W (270°) 19.6mph 9°C 8°C
6/12/19 17:50 EGAE 061750Z 27016KT 9999 FEW010 BKN021 09/08 Q1002 W (270°) 18.4mph 9°C 8°C
6/12/19 17:20 EGAE 061720Z 27015KT 9999 FEW008 SCT020 10/08 Q1001 W (270°) 17.3mph 10°C 8°C
6/12/19 16:50 EGAE 061650Z 28015KT 9999 FEW008 BKN019 09/08 Q1001 RESHRA W (280°) 17.3mph 9°C 8°C
6/12/19 16:20 EGAE 061620Z 27015KT 9000 -SHRA FEW007 BKN017 09/07 Q1000 -SHRA W (270°) 17.3mph 9°C 7°C
6/12/19 15:50 EGAE 061550Z 27016KT 9999 6000N -SHRA FEW009 SCT015 BKN022 10/08 Q1000 -SHRA W (270°) 18.4mph 10°C 8°C
6/12/19 15:20 EGAE 061520Z 27016KT 9999 FEW008 SCT025 09/08 Q0999 RESHRA W (270°) 18.4mph 9°C 8°C
6/12/19 14:50 EGAE 061450Z 28015KT 9999 FEW012 SCT028 10/08 Q0999 W (280°) 17.3mph 10°C 8°C
6/12/19 14:20 EGAE 061420Z 27015KT 9999 FEW011 SCT017 10/08 Q0998 W (270°) 17.3mph 10°C 8°C
6/12/19 13:50 EGAE 061350Z 28014KT 9999 FEW011 SCT018 10/09 Q0997 W (280°) 16.1mph 10°C 9°C
6/12/19 13:20 EGAE 061320Z 28014KT 9999 FEW011 BKN020 09/08 Q0997 RESHRA W (280°) 16.1mph 9°C 8°C
6/12/19 12:50 EGAE 061250Z 28014KT 9999 -SHRA FEW011 SCT022 10/08 Q0997 -SHRA W (280°) 16.1mph 10°C 8°C
6/12/19 12:20 EGAE 061220Z 27013KT 9000 VCSH FEW010 SCT017 10/09 Q0997 VCSH W (270°) 15.0mph 10°C 9°C
6/12/19 11:50 EGAE 061150Z 29010KT 9999 -SHRA FEW010 SCT017 BKN035 09/08 Q0997 -SHRA WNW (290°) 11.5mph 9°C 8°C
6/12/19 10:50 EGAE 061050Z 26011KT 9999 VCSH FEW011 SCT025 09/08 Q0996 VCSH W (260°) 12.7mph 9°C 8°C
6/12/19 10:20 EGAE 061020Z 25012KT 8000 -SHRA FEW009 SCT018 09/08 Q0996 -SHRA WSW (250°) 13.8mph 9°C 8°C
6/12/19 09:50 EGAE 060950Z 25012KT 9999 FEW009 BKN020 09/08 Q0995 WSW (250°) 13.8mph 9°C 8°C
6/12/19 08:50 EGAE 060850Z 24012KT 9000 -SHRA FEW008 SCT023 09/08 Q0994 -SHRA WSW (240°) 13.8mph 9°C 8°C
6/12/19 08:20 EGAE 060820Z 25011KT 9999 FEW010 SCT022 10/09 Q0994 WSW (250°) 12.7mph 10°C 9°C
6/12/19 07:50 EGAE 060750Z 24013KT 9999 FEW009 BKN022 10/08 Q0994 WSW (240°) 15.0mph 10°C 8°C
6/12/19 06:50 EGAE 060650Z 25011KT 9000 -SHRA FEW012 BKN026 10/09 Q0995 -SHRA WSW (250°) 12.7mph 10°C 9°C
6/12/19 06:20 EGAE 060620Z 27014KT 9999 FEW009 SCT018 10/09 Q0995 W (270°) 16.1mph 10°C 9°C
6/12/19 05:50 EGAE 060550Z 27014KT 8000 -RADZ SCT009 BKN018 10/10 Q0995 -RA -DZ W (270°) 16.1mph 10°C 10°C
5/12/19 20:50 EGAE 052050Z 25017KT 9999 FEW010 BKN013 12/11 Q0998 WSW (250°) 19.6mph 12°C 11°C
5/12/19 20:20 EGAE 052020Z 25019KT 9999 FEW010 BKN013 13/11 Q0998 WSW (250°) 21.9mph 13°C 11°C
5/12/19 19:50 EGAE 051950Z 25023KT 9999 FEW010 BKN012 12/11 Q0998 WSW (250°) 26.5mph 12°C 11°C
5/12/19 19:20 EGAE 051920Z 26025KT 9999 FEW010 BKN013 12/11 Q0998 W (260°) 28.8mph 12°C 11°C
5/12/19 18:50 EGAE 051850Z 26028G39KT 9999 SCT010 BKN014 13/12 Q0998 W (260°) 32.2mph 44.9mph 13°C 12°C
5/12/19 18:20 EGAE 051820Z 25030G41KT 8000 -RA SCT008 BKN013 13/11 Q0997 -RA WSW (250°) 34.5mph 47.2mph 13°C 11°C